sensor_id;sensor_type;location;lat;lon;timestamp;P1;durP1;ratioP1;P2;durP2;ratioP2
75297;SDS011;63896;45.990;18.688;2023-04-01T00:00:38;1.85;;;1.20;;
75297;SDS011;63896;45.990;18.688;2023-04-01T00:03:42;3.10;;;1.85;;
75297;SDS011;63896;45.990;18.688;2023-04-01T00:06:45;4.43;;;1.97;;
75297;SDS011;63896;45.990;18.688;2023-04-01T00:09:49;3.45;;;1.73;;
75297;SDS011;63896;45.990;18.688;2023-04-01T00:12:53;4.05;;;1.75;;
75297;SDS011;63896;45.990;18.688;2023-04-01T00:15:56;5.30;;;1.70;;
75297;SDS011;63896;45.990;18.688;2023-04-01T00:19:01;1.77;;;1.20;;
75297;SDS011;63896;45.990;18.688;2023-04-01T00:22:05;3.03;;;1.33;;
75297;SDS011;63896;45.990;18.688;2023-04-01T00:25:08;2.78;;;1.45;;
75297;SDS011;63896;45.990;18.688;2023-04-01T00:28:12;2.35;;;1.13;;
75297;SDS011;63896;45.990;18.688;2023-04-01T00:31:15;1.73;;;1.13;;
75297;SDS011;63896;45.990;18.688;2023-04-01T00:34:18;2.72;;;1.50;;
75297;SDS011;63896;45.990;18.688;2023-04-01T00:37:20;1.57;;;1.43;;
75297;SDS011;63896;45.990;18.688;2023-04-01T00:40:28;3.25;;;1.40;;
75297;SDS011;63896;45.990;18.688;2023-04-01T00:43:31;6.13;;;1.58;;
75297;SDS011;63896;45.990;18.688;2023-04-01T00:46:34;4.47;;;1.80;;
75297;SDS011;63896;45.990;18.688;2023-04-01T00:49:39;2.42;;;1.70;;
75297;SDS011;63896;45.990;18.688;2023-04-01T00:52:45;2.87;;;1.40;;
75297;SDS011;63896;45.990;18.688;2023-04-01T00:59:19;3.75;;;1.60;;
75297;SDS011;63896;45.990;18.688;2023-04-01T01:02:27;4.68;;;1.73;;
75297;SDS011;63896;45.990;18.688;2023-04-01T01:05:38;3.65;;;1.85;;
75297;SDS011;63896;45.990;18.688;2023-04-01T01:11:56;7.88;;;2.50;;
75297;SDS011;63896;45.990;18.688;2023-04-01T01:15:14;4.70;;;2.50;;
75297;SDS011;63896;45.990;18.688;2023-04-01T01:18:35;5.85;;;2.60;;
75297;SDS011;63896;45.990;18.688;2023-04-01T01:38:48;5.50;;;3.35;;
75297;SDS011;63896;45.990;18.688;2023-04-01T01:41:53;7.00;;;3.63;;
75297;SDS011;63896;45.990;18.688;2023-04-01T01:44:59;7.32;;;3.60;;
75297;SDS011;63896;45.990;18.688;2023-04-01T01:48:05;5.88;;;3.28;;
75297;SDS011;63896;45.990;18.688;2023-04-01T01:51:11;6.18;;;2.47;;
75297;SDS011;63896;45.990;18.688;2023-04-01T01:54:15;6.55;;;3.00;;
75297;SDS011;63896;45.990;18.688;2023-04-01T01:57:22;4.53;;;2.53;;
75297;SDS011;63896;45.990;18.688;2023-04-01T02:00:32;6.88;;;2.50;;
75297;SDS011;63896;45.990;18.688;2023-04-01T02:03:37;4.47;;;2.58;;
75297;SDS011;63896;45.990;18.688;2023-04-01T02:06:43;4.15;;;2.40;;
75297;SDS011;63896;45.990;18.688;2023-04-01T02:09:51;4.45;;;2.60;;
75297;SDS011;63896;45.990;18.688;2023-04-01T02:12:56;9.23;;;2.80;;
75297;SDS011;63896;45.990;18.688;2023-04-01T02:16:05;6.28;;;3.00;;
75297;SDS011;63896;45.990;18.688;2023-04-01T02:19:15;3.83;;;2.95;;
75297;SDS011;63896;45.990;18.688;2023-04-01T02:22:27;3.88;;;2.63;;
75297;SDS011;63896;45.990;18.688;2023-04-01T02:25:34;3.85;;;2.70;;
75297;SDS011;63896;45.990;18.688;2023-04-01T02:28:38;4.80;;;2.70;;
75297;SDS011;63896;45.990;18.688;2023-04-01T02:31:44;6.75;;;2.90;;
75297;SDS011;63896;45.990;18.688;2023-04-01T02:34:48;4.07;;;2.42;;
75297;SDS011;63896;45.990;18.688;2023-04-01T02:37:52;5.20;;;2.83;;
75297;SDS011;63896;45.990;18.688;2023-04-01T02:40:58;5.10;;;2.33;;
75297;SDS011;63896;45.990;18.688;2023-04-01T02:44:03;4.20;;;2.10;;
75297;SDS011;63896;45.990;18.688;2023-04-01T02:47:06;8.15;;;2.38;;
75297;SDS011;63896;45.990;18.688;2023-04-01T02:50:09;4.80;;;2.03;;
75297;SDS011;63896;45.990;18.688;2023-04-01T02:53:12;4.38;;;2.50;;
75297;SDS011;63896;45.990;18.688;2023-04-01T02:56:15;5.13;;;2.35;;
75297;SDS011;63896;45.990;18.688;2023-04-01T02:59:18;3.10;;;1.80;;
75297;SDS011;63896;45.990;18.688;2023-04-01T03:02:21;5.70;;;2.40;;
75297;SDS011;63896;45.990;18.688;2023-04-01T03:05:24;2.45;;;1.70;;
75297;SDS011;63896;45.990;18.688;2023-04-01T03:08:27;4.22;;;1.83;;
75297;SDS011;63896;45.990;18.688;2023-04-01T03:11:30;3.88;;;1.80;;
75297;SDS011;63896;45.990;18.688;2023-04-01T03:14:33;2.30;;;1.90;;
75297;SDS011;63896;45.990;18.688;2023-04-01T03:17:37;5.90;;;1.88;;
75297;SDS011;63896;45.990;18.688;2023-04-01T03:20:40;3.45;;;1.40;;
75297;SDS011;63896;45.990;18.688;2023-04-01T03:23:43;3.65;;;1.90;;
75297;SDS011;63896;45.990;18.688;2023-04-01T03:26:46;3.50;;;1.67;;
75297;SDS011;63896;45.990;18.688;2023-04-01T03:29:50;6.23;;;1.97;;
75297;SDS011;63896;45.990;18.688;2023-04-01T03:32:53;2.83;;;1.60;;
75297;SDS011;63896;45.990;18.688;2023-04-01T03:35:55;4.20;;;1.75;;
75297;SDS011;63896;45.990;18.688;2023-04-01T03:38:58;4.90;;;1.98;;
75297;SDS011;63896;45.990;18.688;2023-04-01T03:42:09;9.48;;;2.45;;
75297;SDS011;63896;45.990;18.688;2023-04-01T03:45:12;4.23;;;2.07;;
75297;SDS011;63896;45.990;18.688;2023-04-01T03:48:16;4.05;;;1.88;;
75297;SDS011;63896;45.990;18.688;2023-04-01T03:51:19;3.25;;;1.77;;
75297;SDS011;63896;45.990;18.688;2023-04-01T03:54:22;3.20;;;2.20;;
75297;SDS011;63896;45.990;18.688;2023-04-01T03:57:25;3.15;;;1.88;;
75297;SDS011;63896;45.990;18.688;2023-04-01T04:00:32;2.87;;;1.70;;
75297;SDS011;63896;45.990;18.688;2023-04-01T04:03:36;4.38;;;1.75;;
75297;SDS011;63896;45.990;18.688;2023-04-01T04:06:39;3.85;;;1.85;;
75297;SDS011;63896;45.990;18.688;2023-04-01T04:09:42;2.80;;;1.83;;
75297;SDS011;63896;45.990;18.688;2023-04-01T04:12:45;5.55;;;2.25;;
75297;SDS011;63896;45.990;18.688;2023-04-01T04:15:49;4.13;;;1.50;;
75297;SDS011;63896;45.990;18.688;2023-04-01T04:18:52;3.58;;;2.13;;
75297;SDS011;63896;45.990;18.688;2023-04-01T04:21:56;3.83;;;2.20;;
75297;SDS011;63896;45.990;18.688;2023-04-01T04:24:58;4.32;;;2.55;;
75297;SDS011;63896;45.990;18.688;2023-04-01T04:28:02;3.42;;;1.83;;
75297;SDS011;63896;45.990;18.688;2023-04-01T04:31:05;3.80;;;2.10;;
75297;SDS011;63896;45.990;18.688;2023-04-01T04:34:10;5.78;;;2.55;;
75297;SDS011;63896;45.990;18.688;2023-04-01T04:37:13;4.13;;;2.20;;
75297;SDS011;63896;45.990;18.688;2023-04-01T04:40:16;6.32;;;2.20;;
75297;SDS011;63896;45.990;18.688;2023-04-01T04:43:18;7.07;;;2.00;;
75297;SDS011;63896;45.990;18.688;2023-04-01T04:46:22;6.03;;;2.30;;
75297;SDS011;63896;45.990;18.688;2023-04-01T04:49:32;3.38;;;2.03;;
75297;SDS011;63896;45.990;18.688;2023-04-01T04:52:40;3.17;;;1.48;;
75297;SDS011;63896;45.990;18.688;2023-04-01T04:55:47;2.53;;;1.40;;
75297;SDS011;63896;45.990;18.688;2023-04-01T04:59:06;6.70;;;1.70;;
75297;SDS011;63896;45.990;18.688;2023-04-01T05:02:32;2.07;;;1.17;;
75297;SDS011;63896;45.990;18.688;2023-04-01T05:05:36;3.45;;;1.20;;
75297;SDS011;63896;45.990;18.688;2023-04-01T05:08:39;3.03;;;1.52;;
75297;SDS011;63896;45.990;18.688;2023-04-01T05:11:43;3.67;;;1.70;;
75297;SDS011;63896;45.990;18.688;2023-04-01T05:14:46;2.97;;;1.55;;
75297;SDS011;63896;45.990;18.688;2023-04-01T05:17:49;3.37;;;1.90;;
75297;SDS011;63896;45.990;18.688;2023-04-01T05:20:53;3.55;;;1.60;;
75297;SDS011;63896;45.990;18.688;2023-04-01T05:23:57;3.80;;;2.00;;
75297;SDS011;63896;45.990;18.688;2023-04-01T05:27:00;4.65;;;1.90;;
75297;SDS011;63896;45.990;18.688;2023-04-01T05:30:04;2.70;;;1.85;;
75297;SDS011;63896;45.990;18.688;2023-04-01T05:33:17;3.43;;;2.30;;
75297;SDS011;63896;45.990;18.688;2023-04-01T05:36:20;3.65;;;1.98;;
75297;SDS011;63896;45.990;18.688;2023-04-01T05:39:22;5.20;;;2.10;;
75297;SDS011;63896;45.990;18.688;2023-04-01T05:42:26;5.15;;;2.63;;
75297;SDS011;63896;45.990;18.688;2023-04-01T05:45:29;5.25;;;2.30;;
75297;SDS011;63896;45.990;18.688;2023-04-01T05:48:52;3.30;;;2.30;;
75297;SDS011;63896;45.990;18.688;2023-04-01T05:51:56;4.18;;;2.28;;
75297;SDS011;63896;45.990;18.688;2023-04-01T05:55:00;6.68;;;2.53;;
75297;SDS011;63896;45.990;18.688;2023-04-01T05:58:03;4.45;;;2.20;;
75297;SDS011;63896;45.990;18.688;2023-04-01T06:01:07;5.15;;;2.45;;
75297;SDS011;63896;45.990;18.688;2023-04-01T06:04:18;7.77;;;3.10;;
75297;SDS011;63896;45.990;18.688;2023-04-01T06:07:22;5.50;;;2.58;;
75297;SDS011;63896;45.990;18.688;2023-04-01T06:10:35;3.42;;;2.58;;
75297;SDS011;63896;45.990;18.688;2023-04-01T06:17:17;4.95;;;2.22;;
75297;SDS011;63896;45.990;18.688;2023-04-01T06:23:37;2.70;;;1.77;;
75297;SDS011;63896;45.990;18.688;2023-04-01T06:30:19;5.53;;;2.55;;
75297;SDS011;63896;45.990;18.688;2023-04-01T06:57:42;6.03;;;2.00;;
75297;SDS011;63896;45.990;18.688;2023-04-01T07:00:53;4.30;;;2.58;;
75297;SDS011;63896;45.990;18.688;2023-04-01T07:04:04;4.30;;;2.53;;
75297;SDS011;63896;45.990;18.688;2023-04-01T07:10:47;4.00;;;2.37;;
75297;SDS011;63896;45.990;18.688;2023-04-01T07:17:47;5.47;;;1.90;;
75297;SDS011;63896;45.990;18.688;2023-04-01T07:20:56;6.03;;;1.60;;
75297;SDS011;63896;45.990;18.688;2023-04-01T07:24:01;4.65;;;2.03;;
75297;SDS011;63896;45.990;18.688;2023-04-01T07:27:24;3.23;;;2.00;;
75297;SDS011;63896;45.990;18.688;2023-04-01T07:30:28;4.53;;;2.80;;
75297;SDS011;63896;45.990;18.688;2023-04-01T07:41:01;10.45;;;6.97;;
75297;SDS011;63896;45.990;18.688;2023-04-01T07:44:21;4.23;;;3.03;;
75297;SDS011;63896;45.990;18.688;2023-04-01T08:15:23;9.00;;;4.28;;
75297;SDS011;63896;45.990;18.688;2023-04-01T08:21:52;6.07;;;2.85;;
75297;SDS011;63896;45.990;18.688;2023-04-01T08:25:00;6.85;;;3.15;;
75297;SDS011;63896;45.990;18.688;2023-04-01T08:31:11;4.93;;;2.38;;
75297;SDS011;63896;45.990;18.688;2023-04-01T08:34:30;4.10;;;1.80;;
75297;SDS011;63896;45.990;18.688;2023-04-01T08:37:39;5.75;;;2.80;;
75297;SDS011;63896;45.990;18.688;2023-04-01T08:43:59;4.32;;;2.60;;
75297;SDS011;63896;45.990;18.688;2023-04-01T08:47:28;5.57;;;2.53;;
75297;SDS011;63896;45.990;18.688;2023-04-01T08:57:42;5.45;;;1.80;;
75297;SDS011;63896;45.990;18.688;2023-04-01T09:25:15;5.60;;;2.87;;
75297;SDS011;63896;45.990;18.688;2023-04-01T09:28:39;4.30;;;2.30;;
75297;SDS011;63896;45.990;18.688;2023-04-01T09:41:45;3.47;;;2.20;;
75297;SDS011;63896;45.990;18.688;2023-04-01T09:52:58;3.13;;;1.83;;
75297;SDS011;63896;45.990;18.688;2023-04-01T10:23:38;4.28;;;2.50;;
75297;SDS011;63896;45.990;18.688;2023-04-01T10:34:56;4.93;;;2.70;;
75297;SDS011;63896;45.990;18.688;2023-04-01T10:38:02;4.88;;;2.40;;
75297;SDS011;63896;45.990;18.688;2023-04-01T10:41:28;3.38;;;1.90;;
75297;SDS011;63896;45.990;18.688;2023-04-01T10:57:13;5.30;;;2.00;;
75297;SDS011;63896;45.990;18.688;2023-04-01T11:15:23;5.05;;;2.30;;
75297;SDS011;63896;45.990;18.688;2023-04-01T11:39:20;5.43;;;2.13;;
75297;SDS011;63896;45.990;18.688;2023-04-01T11:43:01;4.25;;;2.13;;
75297;SDS011;63896;45.990;18.688;2023-04-01T11:47:03;3.70;;;2.03;;
75297;SDS011;63896;45.990;18.688;2023-04-01T11:50:40;4.55;;;2.67;;
75297;SDS011;63896;45.990;18.688;2023-04-01T11:54:19;3.30;;;2.17;;
75297;SDS011;63896;45.990;18.688;2023-04-01T12:14:28;3.70;;;1.85;;
75297;SDS011;63896;45.990;18.688;2023-04-01T12:17:53;3.25;;;1.80;;
75297;SDS011;63896;45.990;18.688;2023-04-01T12:27:45;4.07;;;1.85;;
75297;SDS011;63896;45.990;18.688;2023-04-01T12:38:30;3.70;;;1.70;;
75297;SDS011;63896;45.990;18.688;2023-04-01T12:52:30;2.55;;;1.80;;
75297;SDS011;63896;45.990;18.688;2023-04-01T12:55:50;3.97;;;1.60;;
75297;SDS011;63896;45.990;18.688;2023-04-01T12:59:13;2.20;;;1.80;;
75297;SDS011;63896;45.990;18.688;2023-04-01T13:02:51;4.00;;;2.30;;
75297;SDS011;63896;45.990;18.688;2023-04-01T13:06:18;3.45;;;2.50;;
75297;SDS011;63896;45.990;18.688;2023-04-01T13:16:46;3.08;;;1.90;;
75297;SDS011;63896;45.990;18.688;2023-04-01T13:26:39;3.05;;;1.50;;
75297;SDS011;63896;45.990;18.688;2023-04-01T13:33:27;4.55;;;1.95;;
75297;SDS011;63896;45.990;18.688;2023-04-01T13:36:37;6.40;;;2.08;;
75297;SDS011;63896;45.990;18.688;2023-04-01T13:44:07;3.00;;;1.88;;
75297;SDS011;63896;45.990;18.688;2023-04-01T13:47:16;2.10;;;1.60;;
75297;SDS011;63896;45.990;18.688;2023-04-01T14:10:57;3.22;;;1.30;;
75297;SDS011;63896;45.990;18.688;2023-04-01T14:17:54;3.20;;;1.90;;
75297;SDS011;63896;45.990;18.688;2023-04-01T14:24:42;1.85;;;1.50;;
75297;SDS011;63896;45.990;18.688;2023-04-01T14:28:08;3.00;;;1.60;;
75297;SDS011;63896;45.990;18.688;2023-04-01T14:54:40;1.73;;;0.70;;
75297;SDS011;63896;45.990;18.688;2023-04-01T15:01:45;7.53;;;1.23;;
75297;SDS011;63896;45.990;18.688;2023-04-01T15:15:09;3.75;;;1.00;;
75297;SDS011;63896;45.990;18.688;2023-04-01T15:18:38;3.70;;;1.10;;
75297;SDS011;63896;45.990;18.688;2023-04-01T15:31:22;4.53;;;1.77;;
75297;SDS011;63896;45.990;18.688;2023-04-01T15:58:17;5.72;;;2.20;;
75297;SDS011;63896;45.990;18.688;2023-04-01T16:05:03;4.93;;;2.08;;
75297;SDS011;63896;45.990;18.688;2023-04-01T16:08:49;5.82;;;2.10;;
75297;SDS011;63896;45.990;18.688;2023-04-01T16:12:15;4.18;;;1.80;;
75297;SDS011;63896;45.990;18.688;2023-04-01T16:22:02;4.28;;;1.50;;
75297;SDS011;63896;45.990;18.688;2023-04-01T16:25:31;3.78;;;1.52;;
75297;SDS011;63896;45.990;18.688;2023-04-01T16:35:58;3.93;;;1.80;;
75297;SDS011;63896;45.990;18.688;2023-04-01T16:39:26;4.63;;;2.00;;
75297;SDS011;63896;45.990;18.688;2023-04-01T16:42:53;3.35;;;1.10;;
75297;SDS011;63896;45.990;18.688;2023-04-01T16:49:46;6.75;;;4.43;;
75297;SDS011;63896;45.990;18.688;2023-04-01T16:52:58;9.00;;;5.63;;
75297;SDS011;63896;45.990;18.688;2023-04-01T17:02:49;6.90;;;1.83;;
75297;SDS011;63896;45.990;18.688;2023-04-01T17:12:43;2.38;;;1.00;;
75297;SDS011;63896;45.990;18.688;2023-04-01T17:19:54;4.53;;;2.15;;
75297;SDS011;63896;45.990;18.688;2023-04-01T17:23:20;2.42;;;1.50;;
75297;SDS011;63896;45.990;18.688;2023-04-01T17:26:51;2.57;;;1.20;;
75297;SDS011;63896;45.990;18.688;2023-04-01T17:36:36;3.60;;;1.80;;
75297;SDS011;63896;45.990;18.688;2023-04-01T17:39:54;3.92;;;1.90;;
75297;SDS011;63896;45.990;18.688;2023-04-01T18:20:51;5.95;;;3.85;;
75297;SDS011;63896;45.990;18.688;2023-04-01T18:31:26;11.95;;;5.07;;
75297;SDS011;63896;45.990;18.688;2023-04-01T18:41:21;6.60;;;4.25;;
75297;SDS011;63896;45.990;18.688;2023-04-01T18:44:30;7.50;;;4.68;;
75297;SDS011;63896;45.990;18.688;2023-04-01T18:54:20;8.43;;;4.53;;
75297;SDS011;63896;45.990;18.688;2023-04-01T18:57:49;7.00;;;3.10;;
75297;SDS011;63896;45.990;18.688;2023-04-01T19:04:19;8.27;;;4.07;;
75297;SDS011;63896;45.990;18.688;2023-04-01T19:11:16;20.08;;;8.82;;
75297;SDS011;63896;45.990;18.688;2023-04-01T19:14:18;14.48;;;6.13;;
75297;SDS011;63896;45.990;18.688;2023-04-01T19:20:50;7.03;;;4.03;;
75297;SDS011;63896;45.990;18.688;2023-04-01T19:24:34;6.57;;;3.80;;
75297;SDS011;63896;45.990;18.688;2023-04-01T19:27:57;6.97;;;3.22;;
75297;SDS011;63896;45.990;18.688;2023-04-01T19:34:37;6.47;;;3.50;;
75297;SDS011;63896;45.990;18.688;2023-04-01T19:38:04;7.85;;;3.40;;
75297;SDS011;63896;45.990;18.688;2023-04-01T19:44:18;7.45;;;3.60;;
75297;SDS011;63896;45.990;18.688;2023-04-01T19:50:55;9.65;;;3.50;;
75297;SDS011;63896;45.990;18.688;2023-04-01T20:06:59;3.90;;;1.92;;
75297;SDS011;63896;45.990;18.688;2023-04-01T20:10:17;2.55;;;1.55;;
75297;SDS011;63896;45.990;18.688;2023-04-01T20:13:29;3.40;;;1.90;;
75297;SDS011;63896;45.990;18.688;2023-04-01T20:26:25;4.75;;;1.95;;
75297;SDS011;63896;45.990;18.688;2023-04-01T20:46:59;2.83;;;1.50;;
75297;SDS011;63896;45.990;18.688;2023-04-01T20:50:20;4.47;;;1.65;;
75297;SDS011;63896;45.990;18.688;2023-04-01T20:53:36;3.33;;;1.70;;
75297;SDS011;63896;45.990;18.688;2023-04-01T21:03:38;3.80;;;2.10;;
75297;SDS011;63896;45.990;18.688;2023-04-01T21:10:38;4.55;;;2.42;;
75297;SDS011;63896;45.990;18.688;2023-04-01T21:34:40;6.53;;;3.03;;
75297;SDS011;63896;45.990;18.688;2023-04-01T21:41:08;22.00;;;11.95;;
75297;SDS011;63896;45.990;18.688;2023-04-01T21:44:26;18.63;;;10.80;;
75297;SDS011;63896;45.990;18.688;2023-04-01T22:07:58;13.57;;;6.47;;
75297;SDS011;63896;45.990;18.688;2023-04-01T22:17:50;13.07;;;6.40;;
75297;SDS011;63896;45.990;18.688;2023-04-01T22:24:24;8.83;;;4.10;;
75297;SDS011;63896;45.990;18.688;2023-04-01T22:27:46;10.17;;;4.17;;
75297;SDS011;63896;45.990;18.688;2023-04-01T22:31:05;10.45;;;4.55;;
75297;SDS011;63896;45.990;18.688;2023-04-01T22:34:17;6.82;;;4.20;;
75297;SDS011;63896;45.990;18.688;2023-04-01T22:44:00;6.83;;;3.63;;
75297;SDS011;63896;45.990;18.688;2023-04-01T22:47:15;8.68;;;4.18;;
75297;SDS011;63896;45.990;18.688;2023-04-01T22:54:19;3.65;;;2.15;;
75297;SDS011;63896;45.990;18.688;2023-04-01T23:00:33;9.57;;;5.50;;
75297;SDS011;63896;45.990;18.688;2023-04-01T23:03:44;10.82;;;6.60;;
75297;SDS011;63896;45.990;18.688;2023-04-01T23:06:53;12.10;;;7.50;;
75297;SDS011;63896;45.990;18.688;2023-04-01T23:10:00;14.25;;;7.70;;
75297;SDS011;63896;45.990;18.688;2023-04-01T23:13:05;15.32;;;7.97;;
75297;SDS011;63896;45.990;18.688;2023-04-01T23:16:13;10.97;;;6.30;;
75297;SDS011;63896;45.990;18.688;2023-04-01T23:22:46;10.55;;;5.57;;
75297;SDS011;63896;45.990;18.688;2023-04-01T23:29:28;18.35;;;9.52;;
75297;SDS011;63896;45.990;18.688;2023-04-01T23:32:31;18.80;;;8.13;;
75297;SDS011;63896;45.990;18.688;2023-04-01T23:35:35;9.68;;;4.90;;
75297;SDS011;63896;45.990;18.688;2023-04-01T23:38:52;12.70;;;5.20;;
75297;SDS011;63896;45.990;18.688;2023-04-01T23:41:58;7.40;;;3.70;;
75297;SDS011;63896;45.990;18.688;2023-04-01T23:45:14;9.70;;;4.23;;
75297;SDS011;63896;45.990;18.688;2023-04-01T23:48:19;8.20;;;4.03;;
75297;SDS011;63896;45.990;18.688;2023-04-01T23:51:38;9.50;;;4.38;;
75297;SDS011;63896;45.990;18.688;2023-04-01T23:54:52;8.00;;;4.10;;
